sensor_id;sensor_type;location;lat;lon;timestamp;pressure;altitude;pressure_sealevel;temperature;humidity
71145;BME280;58812;47.698;17.726;2022-07-29T00:00:58;100216.75;;;21.48;75.36
71145;BME280;58812;47.698;17.726;2022-07-29T00:03:23;100215.38;;;21.32;75.98
71145;BME280;58812;47.698;17.726;2022-07-29T00:05:49;100208.66;;;21.35;75.76
71145;BME280;58812;47.698;17.726;2022-07-29T00:08:14;100217.91;;;21.21;76.21
71145;BME280;58812;47.698;17.726;2022-07-29T00:10:41;100216.66;;;21.30;75.77
71145;BME280;58812;47.698;17.726;2022-07-29T00:13:07;100213.56;;;21.13;75.58
71145;BME280;58812;47.698;17.726;2022-07-29T00:15:33;100209.87;;;20.94;75.95
71145;BME280;58812;47.698;17.726;2022-07-29T00:17:58;100208.56;;;21.03;76.67
71145;BME280;58812;47.698;17.726;2022-07-29T00:20:24;100210.34;;;21.36;75.35
71145;BME280;58812;47.698;17.726;2022-07-29T00:22:49;100210.81;;;21.20;74.87
71145;BME280;58812;47.698;17.726;2022-07-29T00:25:15;100195.00;;;20.97;75.83
71145;BME280;58812;47.698;17.726;2022-07-29T00:27:40;100196.47;;;20.93;75.57
71145;BME280;58812;47.698;17.726;2022-07-29T00:30:07;100194.22;;;20.83;76.38
71145;BME280;58812;47.698;17.726;2022-07-29T00:32:32;100207.63;;;20.78;76.86
71145;BME280;58812;47.698;17.726;2022-07-29T00:34:58;100204.28;;;20.76;76.44
71145;BME280;58812;47.698;17.726;2022-07-29T00:37:43;100204.44;;;20.94;76.20
71145;BME280;58812;47.698;17.726;2022-07-29T00:40:09;100203.78;;;20.92;76.95
71145;BME280;58812;47.698;17.726;2022-07-29T00:43:01;100203.78;;;20.92;77.05
71145;BME280;58812;47.698;17.726;2022-07-29T00:45:27;100199.22;;;20.86;76.50
71145;BME280;58812;47.698;17.726;2022-07-29T00:47:52;100205.72;;;20.85;76.87
71145;BME280;58812;47.698;17.726;2022-07-29T00:50:18;100203.63;;;20.80;76.89
71145;BME280;58812;47.698;17.726;2022-07-29T00:52:44;100204.09;;;20.71;77.03
71145;BME280;58812;47.698;17.726;2022-07-29T00:55:12;100204.72;;;20.73;77.20
71145;BME280;58812;47.698;17.726;2022-07-29T00:57:39;100200.91;;;20.87;76.81
71145;BME280;58812;47.698;17.726;2022-07-29T01:00:07;100203.75;;;20.99;76.39
71145;BME280;58812;47.698;17.726;2022-07-29T01:02:33;100195.88;;;20.84;76.89
71145;BME280;58812;47.698;17.726;2022-07-29T01:04:59;100192.75;;;20.80;77.37
71145;BME280;58812;47.698;17.726;2022-07-29T01:07:25;100193.41;;;20.69;77.78
71145;BME280;58812;47.698;17.726;2022-07-29T01:09:52;100201.78;;;20.68;77.61
71145;BME280;58812;47.698;17.726;2022-07-29T01:12:24;100197.84;;;20.64;77.07
71145;BME280;58812;47.698;17.726;2022-07-29T01:14:51;100192.66;;;20.49;77.14
71145;BME280;58812;47.698;17.726;2022-07-29T01:17:21;100197.84;;;20.64;77.59
71145;BME280;58812;47.698;17.726;2022-07-29T01:23:01;100191.38;;;20.51;78.39
71145;BME280;58812;47.698;17.726;2022-07-29T01:31:00;100195.38;;;20.36;78.89
71145;BME280;58812;47.698;17.726;2022-07-29T01:33:29;100184.69;;;20.41;78.33
71145;BME280;58812;47.698;17.726;2022-07-29T01:36:29;100196.81;;;20.58;78.84
71145;BME280;58812;47.698;17.726;2022-07-29T01:39:10;100190.31;;;20.39;79.02
71145;BME280;58812;47.698;17.726;2022-07-29T01:41:40;100196.41;;;20.54;78.66
71145;BME280;58812;47.698;17.726;2022-07-29T01:44:22;100193.25;;;20.51;78.65
71145;BME280;58812;47.698;17.726;2022-07-29T01:46:58;100174.66;;;20.48;78.64
71145;BME280;58812;47.698;17.726;2022-07-29T01:49:31;100193.69;;;20.54;78.29
71145;BME280;58812;47.698;17.726;2022-07-29T01:52:05;100194.06;;;20.45;78.33
71145;BME280;58812;47.698;17.726;2022-07-29T01:54:35;100184.72;;;20.34;79.06
71145;BME280;58812;47.698;17.726;2022-07-29T01:57:03;100191.00;;;20.15;79.42
71145;BME280;58812;47.698;17.726;2022-07-29T01:59:30;100194.53;;;20.15;80.16
71145;BME280;58812;47.698;17.726;2022-07-29T02:01:58;100190.78;;;20.23;80.07
71145;BME280;58812;47.698;17.726;2022-07-29T02:04:24;100182.84;;;20.15;80.30
71145;BME280;58812;47.698;17.726;2022-07-29T02:06:52;100180.97;;;20.15;80.21
71145;BME280;58812;47.698;17.726;2022-07-29T02:09:21;100183.50;;;20.17;80.23
71145;BME280;58812;47.698;17.726;2022-07-29T02:11:52;100182.22;;;19.86;81.07
71145;BME280;58812;47.698;17.726;2022-07-29T02:14:20;100188.44;;;20.33;79.61
71145;BME280;58812;47.698;17.726;2022-07-29T02:16:48;100182.25;;;20.06;80.23
71145;BME280;58812;47.698;17.726;2022-07-29T02:19:17;100184.13;;;19.99;80.91
71145;BME280;58812;47.698;17.726;2022-07-29T02:21:44;100178.25;;;19.95;80.49
71145;BME280;58812;47.698;17.726;2022-07-29T02:24:11;100171.38;;;19.99;81.07
71145;BME280;58812;47.698;17.726;2022-07-29T02:26:39;100181.81;;;19.89;80.29
71145;BME280;58812;47.698;17.726;2022-07-29T02:29:08;100186.19;;;19.97;80.14
71145;BME280;58812;47.698;17.726;2022-07-29T02:31:36;100180.34;;;20.07;80.27
71145;BME280;58812;47.698;17.726;2022-07-29T02:34:06;100186.00;;;20.05;80.08
71145;BME280;58812;47.698;17.726;2022-07-29T02:36:32;100196.44;;;20.35;80.00
71145;BME280;58812;47.698;17.726;2022-07-29T02:38:59;100199.94;;;20.62;77.94
71145;BME280;58812;47.698;17.726;2022-07-29T02:41:38;100195.59;;;20.08;80.07
71145;BME280;58812;47.698;17.726;2022-07-29T02:44:17;100180.97;;;20.09;79.81
71145;BME280;58812;47.698;17.726;2022-07-29T02:47:32;100182.25;;;19.93;80.23
71145;BME280;58812;47.698;17.726;2022-07-29T02:49:41;100181.81;;;20.02;79.66
71145;BME280;58812;47.698;17.726;2022-07-29T02:57:32;100184.69;;;20.54;77.98
71145;BME280;58812;47.698;17.726;2022-07-29T03:00:06;100186.16;;;20.43;78.67
71145;BME280;58812;47.698;17.726;2022-07-29T03:02:36;100196.00;;;20.31;78.82
71145;BME280;58812;47.698;17.726;2022-07-29T03:05:04;100180.97;;;20.15;79.23
71145;BME280;58812;47.698;17.726;2022-07-29T03:07:32;100181.81;;;20.09;79.14
71145;BME280;58812;47.698;17.726;2022-07-29T03:09:59;100180.97;;;20.15;78.96
71145;BME280;58812;47.698;17.726;2022-07-29T03:12:25;100179.31;;;20.08;79.01
71145;BME280;58812;47.698;17.726;2022-07-29T03:14:52;100187.25;;;19.96;79.69
71145;BME280;58812;47.698;17.726;2022-07-29T03:17:18;100183.28;;;19.85;80.09
71145;BME280;58812;47.698;17.726;2022-07-29T03:19:44;100184.31;;;19.84;79.89
71145;BME280;58812;47.698;17.726;2022-07-29T03:22:10;100188.53;;;19.93;80.32
71145;BME280;58812;47.698;17.726;2022-07-29T03:24:37;100186.44;;;19.82;79.59
71145;BME280;58812;47.698;17.726;2022-07-29T03:27:04;100184.75;;;20.08;78.93
71145;BME280;58812;47.698;17.726;2022-07-29T03:29:30;100184.75;;;19.88;79.92
71145;BME280;58812;47.698;17.726;2022-07-29T03:31:55;100193.13;;;19.93;80.15
71145;BME280;58812;47.698;17.726;2022-07-29T03:34:21;100192.47;;;19.97;79.12
71145;BME280;58812;47.698;17.726;2022-07-29T03:36:47;100197.50;;;20.07;79.09
71145;BME280;58812;47.698;17.726;2022-07-29T03:39:17;100191.84;;;19.95;79.08
71145;BME280;58812;47.698;17.726;2022-07-29T03:41:44;100198.12;;;20.02;79.09
71145;BME280;58812;47.698;17.726;2022-07-29T03:44:12;100191.03;;;19.95;79.44
71145;BME280;58812;47.698;17.726;2022-07-29T03:46:39;100202.31;;;20.12;79.29
71145;BME280;58812;47.698;17.726;2022-07-29T03:49:08;100205.22;;;20.04;80.68
71145;BME280;58812;47.698;17.726;2022-07-29T03:51:34;100204.28;;;20.83;76.75
71145;BME280;58812;47.698;17.726;2022-07-29T03:54:04;100205.56;;;20.67;77.46
71145;BME280;58812;47.698;17.726;2022-07-29T03:56:32;100203.13;;;20.25;78.14
71145;BME280;58812;47.698;17.726;2022-07-29T03:59:01;100205.44;;;20.02;78.49
71145;BME280;58812;47.698;17.726;2022-07-29T04:01:27;100214.63;;;20.08;79.18
71145;BME280;58812;47.698;17.726;2022-07-29T04:03:53;100213.37;;;19.90;79.35
71145;BME280;58812;47.698;17.726;2022-07-29T04:06:19;100207.72;;;20.18;79.71
71145;BME280;58812;47.698;17.726;2022-07-29T04:08:44;100217.56;;;20.13;79.03
71145;BME280;58812;47.698;17.726;2022-07-29T04:11:10;100220.50;;;20.11;78.67
71145;BME280;58812;47.698;17.726;2022-07-29T04:13:35;100219.84;;;20.09;78.53
71145;BME280;58812;47.698;17.726;2022-07-29T04:16:01;100212.31;;;20.31;79.07
71145;BME280;58812;47.698;17.726;2022-07-29T04:18:26;100217.56;;;20.19;78.74
71145;BME280;58812;47.698;17.726;2022-07-29T04:20:52;100215.25;;;20.30;77.82
71145;BME280;58812;47.698;17.726;2022-07-29T04:23:17;100221.94;;;20.40;78.59
71145;BME280;58812;47.698;17.726;2022-07-29T04:25:43;100218.28;;;20.79;76.36
71145;BME280;58812;47.698;17.726;2022-07-29T04:28:09;100223.47;;;21.01;75.61
71145;BME280;58812;47.698;17.726;2022-07-29T04:30:35;100219.84;;;21.14;75.13
71145;BME280;58812;47.698;17.726;2022-07-29T04:33:04;100220.16;;;21.37;73.67
71145;BME280;58812;47.698;17.726;2022-07-29T04:35:30;100220.44;;;21.16;73.45
71145;BME280;58812;47.698;17.726;2022-07-29T04:37:56;100212.28;;;21.16;73.70
71145;BME280;58812;47.698;17.726;2022-07-29T04:40:21;100227.50;;;21.37;73.80
71145;BME280;58812;47.698;17.726;2022-07-29T04:42:47;100220.88;;;21.13;72.65
71145;BME280;58812;47.698;17.726;2022-07-29T04:45:12;100218.34;;;21.18;73.44
71145;BME280;58812;47.698;17.726;2022-07-29T04:47:38;100222.00;;;21.43;72.41
71145;BME280;58812;47.698;17.726;2022-07-29T04:50:04;100228.44;;;21.55;71.48
71145;BME280;58812;47.698;17.726;2022-07-29T04:52:31;100233.63;;;21.95;70.10
71145;BME280;58812;47.698;17.726;2022-07-29T04:54:56;100232.88;;;22.13;69.57
71145;BME280;58812;47.698;17.726;2022-07-29T04:57:21;100236.87;;;22.35;68.48
71145;BME280;58812;47.698;17.726;2022-07-29T04:59:47;100239.06;;;22.45;67.32
71145;BME280;58812;47.698;17.726;2022-07-29T05:02:13;100235.91;;;22.66;66.60
71145;BME280;58812;47.698;17.726;2022-07-29T05:04:39;100244.94;;;22.67;66.65
71145;BME280;58812;47.698;17.726;2022-07-29T05:07:04;100234.34;;;22.77;65.07
71145;BME280;58812;47.698;17.726;2022-07-29T05:09:29;100240.84;;;22.95;65.60
71145;BME280;58812;47.698;17.726;2022-07-29T05:11:57;100242.38;;;23.09;65.11
71145;BME280;58812;47.698;17.726;2022-07-29T05:14:22;100242.12;;;23.29;63.97
71145;BME280;58812;47.698;17.726;2022-07-29T05:16:48;100243.78;;;23.60;62.54
71145;BME280;58812;47.698;17.726;2022-07-29T05:19:16;100237.66;;;23.64;62.34
71145;BME280;58812;47.698;17.726;2022-07-29T05:21:41;100238.31;;;23.78;61.84
71145;BME280;58812;47.698;17.726;2022-07-29T05:24:07;100245.56;;;23.84;61.48
71145;BME280;58812;47.698;17.726;2022-07-29T05:26:33;100250.00;;;23.97;61.12
71145;BME280;58812;47.698;17.726;2022-07-29T05:28:58;100247.16;;;24.15;60.80
71145;BME280;58812;47.698;17.726;2022-07-29T05:31:23;100254.22;;;24.35;60.50
71145;BME280;58812;47.698;17.726;2022-07-29T05:33:49;100252.69;;;24.62;59.48
71145;BME280;58812;47.698;17.726;2022-07-29T05:36:14;100254.59;;;24.62;56.32
71145;BME280;58812;47.698;17.726;2022-07-29T05:38:39;100253.81;;;24.90;57.80
71145;BME280;58812;47.698;17.726;2022-07-29T05:41:05;100245.72;;;24.95;56.92
71145;BME280;58812;47.698;17.726;2022-07-29T05:43:31;100248.31;;;25.13;56.30
71145;BME280;58812;47.698;17.726;2022-07-29T05:45:56;100258.72;;;25.40;55.84
71145;BME280;58812;47.698;17.726;2022-07-29T05:48:22;100253.94;;;25.47;55.77
71145;BME280;58812;47.698;17.726;2022-07-29T05:50:47;100259.78;;;25.67;55.21
71145;BME280;58812;47.698;17.726;2022-07-29T05:53:13;100259.78;;;25.67;54.69
71145;BME280;58812;47.698;17.726;2022-07-29T05:55:39;100265.34;;;26.01;54.58
71145;BME280;58812;47.698;17.726;2022-07-29T05:58:04;100261.63;;;26.07;54.40
71145;BME280;58812;47.698;17.726;2022-07-29T06:00:29;100269.03;;;26.23;54.25
71145;BME280;58812;47.698;17.726;2022-07-29T06:02:55;100267.53;;;26.32;53.38
71145;BME280;58812;47.698;17.726;2022-07-29T06:05:22;100278.50;;;26.66;53.22
71145;BME280;58812;47.698;17.726;2022-07-29T06:07:47;100273.44;;;26.97;52.56
71145;BME280;58812;47.698;17.726;2022-07-29T06:10:12;100266.06;;;27.19;52.08
71145;BME280;58812;47.698;17.726;2022-07-29T06:12:38;100276.38;;;27.29;51.25
71145;BME280;58812;47.698;17.726;2022-07-29T06:15:04;100267.84;;;27.30;48.87
71145;BME280;58812;47.698;17.726;2022-07-29T06:17:29;100266.12;;;27.46;48.31
71145;BME280;58812;47.698;17.726;2022-07-29T06:19:55;100264.28;;;27.79;45.63
71145;BME280;58812;47.698;17.726;2022-07-29T06:22:20;100263.69;;;28.04;45.32
71145;BME280;58812;47.698;17.726;2022-07-29T06:24:45;100261.25;;;27.75;45.02
71145;BME280;58812;47.698;17.726;2022-07-29T06:27:11;100265.16;;;27.35;44.97
71145;BME280;58812;47.698;17.726;2022-07-29T06:29:36;100265.44;;;27.83;45.05
71145;BME280;58812;47.698;17.726;2022-07-29T06:32:02;100273.16;;;27.86;44.49
71145;BME280;58812;47.698;17.726;2022-07-29T06:34:28;100270.06;;;28.09;44.07
71145;BME280;58812;47.698;17.726;2022-07-29T06:36:53;100268.59;;;28.29;44.02
71145;BME280;58812;47.698;17.726;2022-07-29T06:39:19;100271.63;;;27.46;45.33
71145;BME280;58812;47.698;17.726;2022-07-29T06:41:49;100262.47;;;27.40;45.16
71145;BME280;58812;47.698;17.726;2022-07-29T06:44:15;100262.25;;;27.69;45.68
71145;BME280;58812;47.698;17.726;2022-07-29T06:46:41;100259.50;;;28.65;43.53
71145;BME280;58812;47.698;17.726;2022-07-29T06:49:06;100257.34;;;28.72;43.15
71145;BME280;58812;47.698;17.726;2022-07-29T06:51:32;100266.53;;;28.88;42.47
71145;BME280;58812;47.698;17.726;2022-07-29T06:53:57;100257.37;;;29.40;41.52
71145;BME280;58812;47.698;17.726;2022-07-29T06:56:23;100257.84;;;29.17;42.19
71145;BME280;58812;47.698;17.726;2022-07-29T06:58:49;100261.34;;;29.60;41.72
71145;BME280;58812;47.698;17.726;2022-07-29T07:01:14;100257.87;;;29.22;42.32
71145;BME280;58812;47.698;17.726;2022-07-29T07:03:40;100258.97;;;29.21;42.17
71145;BME280;58812;47.698;17.726;2022-07-29T07:06:07;100250.31;;;29.75;41.52
71145;BME280;58812;47.698;17.726;2022-07-29T07:08:32;100251.47;;;30.30;40.60
71145;BME280;58812;47.698;17.726;2022-07-29T07:10:57;100255.31;;;30.44;40.67
71145;BME280;58812;47.698;17.726;2022-07-29T07:13:23;100260.28;;;30.73;40.07
71145;BME280;58812;47.698;17.726;2022-07-29T07:15:49;100258.66;;;30.36;40.50
71145;BME280;58812;47.698;17.726;2022-07-29T07:18:16;100252.38;;;31.21;38.98
71145;BME280;58812;47.698;17.726;2022-07-29T07:20:41;100260.97;;;31.14;38.48
71145;BME280;58812;47.698;17.726;2022-07-29T07:23:07;100252.56;;;30.29;40.27
71145;BME280;58812;47.698;17.726;2022-07-29T07:25:32;100247.88;;;30.50;38.54
71145;BME280;58812;47.698;17.726;2022-07-29T07:27:58;100248.50;;;29.18;41.60
71145;BME280;58812;47.698;17.726;2022-07-29T07:30:23;100251.44;;;29.79;40.92
71145;BME280;58812;47.698;17.726;2022-07-29T07:32:49;100251.75;;;30.39;39.72
71145;BME280;58812;47.698;17.726;2022-07-29T07:35:14;100252.53;;;29.98;40.64
71145;BME280;58812;47.698;17.726;2022-07-29T07:37:40;100253.09;;;30.41;40.08
71145;BME280;58812;47.698;17.726;2022-07-29T07:40:06;100258.59;;;29.70;40.89
71145;BME280;58812;47.698;17.726;2022-07-29T07:42:32;100243.06;;;29.48;41.90
71145;BME280;58812;47.698;17.726;2022-07-29T07:44:58;100254.78;;;30.01;41.23
71145;BME280;58812;47.698;17.726;2022-07-29T07:47:23;100254.22;;;30.50;40.10
71145;BME280;58812;47.698;17.726;2022-07-29T07:49:50;100248.41;;;30.52;40.23
71145;BME280;58812;47.698;17.726;2022-07-29T07:52:17;100245.34;;;30.53;40.05
71145;BME280;58812;47.698;17.726;2022-07-29T07:54:43;100243.13;;;30.76;37.99
71145;BME280;58812;47.698;17.726;2022-07-29T07:57:10;100254.06;;;31.06;39.13
71145;BME280;58812;47.698;17.726;2022-07-29T07:59:35;100248.94;;;31.49;38.15
71145;BME280;58812;47.698;17.726;2022-07-29T08:02:00;100259.25;;;31.78;37.55
71145;BME280;58812;47.698;17.726;2022-07-29T08:04:26;100253.38;;;32.24;36.42
71145;BME280;58812;47.698;17.726;2022-07-29T08:06:55;100249.44;;;32.88;35.10
71145;BME280;58812;47.698;17.726;2022-07-29T08:09:21;100258.66;;;33.26;34.36
71145;BME280;58812;47.698;17.726;2022-07-29T08:11:46;100250.75;;;32.66;34.80
71145;BME280;58812;47.698;17.726;2022-07-29T08:14:12;100243.66;;;31.97;35.50
71145;BME280;58812;47.698;17.726;2022-07-29T08:16:39;100245.66;;;33.27;34.05
71145;BME280;58812;47.698;17.726;2022-07-29T08:19:05;100248.69;;;33.49;33.05
71145;BME280;58812;47.698;17.726;2022-07-29T08:21:30;100243.84;;;32.93;34.42
71145;BME280;58812;47.698;17.726;2022-07-29T08:23:55;100241.81;;;32.75;34.22
71145;BME280;58812;47.698;17.726;2022-07-29T08:26:42;100246.75;;;32.54;34.79
71145;BME280;58812;47.698;17.726;2022-07-29T08:29:08;100247.22;;;32.32;33.31
71145;BME280;58812;47.698;17.726;2022-07-29T08:31:33;100250.13;;;32.75;34.55
71145;BME280;58812;47.698;17.726;2022-07-29T08:33:59;100247.13;;;32.42;34.15
71145;BME280;58812;47.698;17.726;2022-07-29T08:36:25;100250.41;;;32.73;34.08
71145;BME280;58812;47.698;17.726;2022-07-29T08:38:51;100242.84;;;32.79;33.74
71145;BME280;58812;47.698;17.726;2022-07-29T08:41:18;100249.69;;;33.15;33.08
71145;BME280;58812;47.698;17.726;2022-07-29T08:43:44;100245.53;;;33.74;32.26
71145;BME280;58812;47.698;17.726;2022-07-29T08:46:09;100249.25;;;33.27;33.72
71145;BME280;58812;47.698;17.726;2022-07-29T08:48:36;100250.25;;;33.12;33.82
71145;BME280;58812;47.698;17.726;2022-07-29T08:51:02;100253.94;;;33.69;32.77
71145;BME280;58812;47.698;17.726;2022-07-29T08:53:28;100249.75;;;33.53;32.38
71145;BME280;58812;47.698;17.726;2022-07-29T08:55:54;100252.03;;;33.84;31.78
71145;BME280;58812;47.698;17.726;2022-07-29T08:58:21;100251.91;;;33.56;31.11
71145;BME280;58812;47.698;17.726;2022-07-29T09:00:54;100245.84;;;34.24;30.93
71145;BME280;58812;47.698;17.726;2022-07-29T09:03:22;100249.03;;;34.32;30.39
71145;BME280;58812;47.698;17.726;2022-07-29T09:05:48;100249.50;;;33.49;31.27
71145;BME280;58812;47.698;17.726;2022-07-29T09:08:15;100251.25;;;32.74;31.04
71145;BME280;58812;47.698;17.726;2022-07-29T09:10:41;100252.50;;;33.10;30.67
71145;BME280;58812;47.698;17.726;2022-07-29T09:13:07;100246.87;;;33.77;29.40
71145;BME280;58812;47.698;17.726;2022-07-29T09:15:33;100247.06;;;34.51;29.39
71145;BME280;58812;47.698;17.726;2022-07-29T09:17:58;100243.03;;;34.43;28.18
71145;BME280;58812;47.698;17.726;2022-07-29T09:20:26;100248.09;;;34.69;28.57
71145;BME280;58812;47.698;17.726;2022-07-29T09:23:11;100240.78;;;33.56;27.56
71145;BME280;58812;47.698;17.726;2022-07-29T09:25:39;100244.50;;;34.54;27.95
71145;BME280;58812;47.698;17.726;2022-07-29T09:28:10;100242.56;;;34.22;28.40
71145;BME280;58812;47.698;17.726;2022-07-29T09:30:50;100242.41;;;33.38;28.90
71145;BME280;58812;47.698;17.726;2022-07-29T09:33:16;100239.94;;;34.45;27.46
71145;BME280;58812;47.698;17.726;2022-07-29T09:35:42;100229.16;;;34.71;27.52
71145;BME280;58812;47.698;17.726;2022-07-29T09:38:12;100228.47;;;33.25;28.84
71145;BME280;58812;47.698;17.726;2022-07-29T09:40:37;100224.97;;;33.94;28.08
71145;BME280;58812;47.698;17.726;2022-07-29T09:43:10;100234.38;;;35.41;26.85
71145;BME280;58812;47.698;17.726;2022-07-29T09:45:36;100228.09;;;33.88;28.30
71145;BME280;58812;47.698;17.726;2022-07-29T09:48:18;100224.81;;;33.67;27.95
71145;BME280;58812;47.698;17.726;2022-07-29T09:50:45;100216.94;;;33.55;28.78
71145;BME280;58812;47.698;17.726;2022-07-29T09:53:29;100214.38;;;35.53;25.62
71145;BME280;58812;47.698;17.726;2022-07-29T09:55:56;100213.72;;;34.78;26.54
71145;BME280;58812;47.698;17.726;2022-07-29T09:58:22;100211.22;;;34.49;27.58
71145;BME280;58812;47.698;17.726;2022-07-29T10:00:49;100204.94;;;34.44;26.49
71145;BME280;58812;47.698;17.726;2022-07-29T10:03:16;100215.22;;;35.98;23.99
71145;BME280;58812;47.698;17.726;2022-07-29T10:05:43;100207.03;;;35.79;24.46
71145;BME280;58812;47.698;17.726;2022-07-29T10:08:09;100205.81;;;37.27;23.06
71145;BME280;58812;47.698;17.726;2022-07-29T10:10:37;100200.03;;;37.15;23.21
71145;BME280;58812;47.698;17.726;2022-07-29T10:13:07;100192.50;;;36.67;23.00
71145;BME280;58812;47.698;17.726;2022-07-29T10:15:35;100192.78;;;36.57;22.81
71145;BME280;58812;47.698;17.726;2022-07-29T10:18:07;100200.59;;;37.43;22.54
71145;BME280;58812;47.698;17.726;2022-07-29T10:20:34;100188.09;;;37.40;21.95
71145;BME280;58812;47.698;17.726;2022-07-29T10:22:59;100189.75;;;37.41;21.80
71145;BME280;58812;47.698;17.726;2022-07-29T10:25:27;100183.91;;;35.20;24.01
71145;BME280;58812;47.698;17.726;2022-07-29T10:27:53;100188.84;;;36.27;23.35
71145;BME280;58812;47.698;17.726;2022-07-29T10:30:20;100165.22;;;36.55;23.02
71145;BME280;58812;47.698;17.726;2022-07-29T10:33:17;100189.41;;;37.69;21.65
71145;BME280;58812;47.698;17.726;2022-07-29T10:44:02;100172.00;;;36.32;23.29
71145;BME280;58812;47.698;17.726;2022-07-29T10:46:35;100162.69;;;34.42;23.96
71145;BME280;58812;47.698;17.726;2022-07-29T10:49:08;100169.72;;;34.80;24.92
71145;BME280;58812;47.698;17.726;2022-07-29T10:51:54;100170.97;;;35.02;24.53
71145;BME280;58812;47.698;17.726;2022-07-29T10:57:31;100161.06;;;35.46;23.33
71145;BME280;58812;47.698;17.726;2022-07-29T11:05:15;100154.53;;;36.49;22.61
71145;BME280;58812;47.698;17.726;2022-07-29T11:10:32;100159.09;;;35.10;24.23
71145;BME280;58812;47.698;17.726;2022-07-29T11:12:58;100152.94;;;34.72;24.16
71145;BME280;58812;47.698;17.726;2022-07-29T11:15:23;100151.69;;;34.23;24.91
71145;BME280;58812;47.698;17.726;2022-07-29T11:20:39;100142.59;;;35.50;23.93
71145;BME280;58812;47.698;17.726;2022-07-29T11:23:28;100140.03;;;35.17;24.59
71145;BME280;58812;47.698;17.726;2022-07-29T11:31:44;100123.44;;;34.02;25.81
71145;BME280;58812;47.698;17.726;2022-07-29T11:34:16;100125.22;;;34.12;27.07
71145;BME280;58812;47.698;17.726;2022-07-29T11:40:28;100116.91;;;36.77;22.51
71145;BME280;58812;47.698;17.726;2022-07-29T11:47:33;100115.81;;;35.40;25.04
71145;BME280;58812;47.698;17.726;2022-07-29T11:50:01;100118.16;;;35.92;25.21
71145;BME280;58812;47.698;17.726;2022-07-29T11:52:47;100117.91;;;35.35;23.69
71145;BME280;58812;47.698;17.726;2022-07-29T11:55:18;100109.75;;;35.02;23.13
71145;BME280;58812;47.698;17.726;2022-07-29T11:57:52;100107.72;;;35.97;22.96
71145;BME280;58812;47.698;17.726;2022-07-29T12:00:35;100099.84;;;36.30;23.12
71145;BME280;58812;47.698;17.726;2022-07-29T12:03:05;100103.00;;;36.95;22.63
71145;BME280;58812;47.698;17.726;2022-07-29T12:05:42;100109.88;;;36.97;21.74
71145;BME280;58812;47.698;17.726;2022-07-29T12:08:19;100103.28;;;35.29;25.11
71145;BME280;58812;47.698;17.726;2022-07-29T12:10:46;100098.94;;;35.59;24.22
71145;BME280;58812;47.698;17.726;2022-07-29T12:13:13;100096.12;;;35.81;23.88
71145;BME280;58812;47.698;17.726;2022-07-29T12:15:39;100102.28;;;35.70;24.23
71145;BME280;58812;47.698;17.726;2022-07-29T12:18:13;100098.63;;;36.54;23.93
71145;BME280;58812;47.698;17.726;2022-07-29T12:20:39;100103.09;;;36.72;21.91
71145;BME280;58812;47.698;17.726;2022-07-29T12:23:06;100088.06;;;37.08;22.70
71145;BME280;58812;47.698;17.726;2022-07-29T12:25:34;100087.09;;;37.12;22.64
71145;BME280;58812;47.698;17.726;2022-07-29T12:28:03;100091.53;;;34.96;24.37
71145;BME280;58812;47.698;17.726;2022-07-29T12:30:41;100085.03;;;35.59;23.47
71145;BME280;58812;47.698;17.726;2022-07-29T12:33:17;100075.03;;;36.60;22.63
71145;BME280;58812;47.698;17.726;2022-07-29T12:35:45;100080.00;;;37.32;22.09
71145;BME280;58812;47.698;17.726;2022-07-29T12:38:12;100072.25;;;35.89;23.39
71145;BME280;58812;47.698;17.726;2022-07-29T12:40:38;100072.19;;;35.80;22.57
71145;BME280;58812;47.698;17.726;2022-07-29T12:43:05;100068.19;;;37.27;21.44
71145;BME280;58812;47.698;17.726;2022-07-29T12:45:32;100062.03;;;36.64;22.54
71145;BME280;58812;47.698;17.726;2022-07-29T12:47:58;100058.56;;;36.01;20.98
71145;BME280;58812;47.698;17.726;2022-07-29T12:50:23;100055.94;;;36.45;21.93
71145;BME280;58812;47.698;17.726;2022-07-29T12:52:50;100052.03;;;36.06;22.34
71145;BME280;58812;47.698;17.726;2022-07-29T12:55:15;100051.34;;;36.00;21.77
71145;BME280;58812;47.698;17.726;2022-07-29T12:57:48;100045.00;;;36.74;21.03
71145;BME280;58812;47.698;17.726;2022-07-29T13:00:16;100034.56;;;36.31;22.19
71145;BME280;58812;47.698;17.726;2022-07-29T13:02:55;100037.56;;;35.64;22.33
71145;BME280;58812;47.698;17.726;2022-07-29T13:05:21;100040.28;;;37.01;21.27
71145;BME280;58812;47.698;17.726;2022-07-29T13:07:47;100039.94;;;37.46;20.66
71145;BME280;58812;47.698;17.726;2022-07-29T13:10:17;100041.59;;;37.93;20.55
71145;BME280;58812;47.698;17.726;2022-07-29T13:13:11;100034.97;;;38.07;20.69
71145;BME280;58812;47.698;17.726;2022-07-29T13:15:41;100033.31;;;37.59;20.57
71145;BME280;58812;47.698;17.726;2022-07-29T13:20:52;100022.63;;;34.79;23.94
71145;BME280;58812;47.698;17.726;2022-07-29T13:23:17;100023.75;;;35.14;23.12
71145;BME280;58812;47.698;17.726;2022-07-29T13:25:43;100013.53;;;35.23;23.37
71145;BME280;58812;47.698;17.726;2022-07-29T13:28:08;100015.81;;;34.99;23.50
71145;BME280;58812;47.698;17.726;2022-07-29T13:30:34;100007.13;;;35.00;23.22
71145;BME280;58812;47.698;17.726;2022-07-29T13:32:59;100003.63;;;35.40;22.72
71145;BME280;58812;47.698;17.726;2022-07-29T13:35:25;100010.53;;;35.96;21.95
71145;BME280;58812;47.698;17.726;2022-07-29T13:37:50;99997.88;;;35.36;22.46